sensor_id;sensor_type;location;lat;lon;timestamp;pressure;altitude;pressure_sealevel;temperature;humidity
72118;BME280;59992;47.490;8.736;2023-09-12T00:01:08;96327.55;;;16.83;94.10
72118;BME280;59992;47.490;8.736;2023-09-12T00:03:58;96328.52;;;16.81;93.93
72118;BME280;59992;47.490;8.736;2023-09-12T00:06:48;96329.77;;;16.78;93.89
72118;BME280;59992;47.490;8.736;2023-09-12T00:09:39;96335.30;;;16.76;94.27
72118;BME280;59992;47.490;8.736;2023-09-12T00:12:29;96332.36;;;16.74;93.76
72118;BME280;59992;47.490;8.736;2023-09-12T00:15:19;96330.92;;;16.73;94.39
72118;BME280;59992;47.490;8.736;2023-09-12T00:18:09;96328.27;;;16.71;96.41
72118;BME280;59992;47.490;8.736;2023-09-12T00:21:00;96329.92;;;16.67;95.98
72118;BME280;59992;47.490;8.736;2023-09-12T00:23:50;96327.42;;;16.66;96.49
72118;BME280;59992;47.490;8.736;2023-09-12T00:26:41;96323.48;;;16.63;99.42
72118;BME280;59992;47.490;8.736;2023-09-12T00:29:31;96325.14;;;16.60;99.89
72118;BME280;59992;47.490;8.736;2023-09-12T00:32:22;96326.33;;;16.58;100.00
72118;BME280;59992;47.490;8.736;2023-09-12T00:35:12;96328.11;;;16.56;99.86
72118;BME280;59992;47.490;8.736;2023-09-12T00:38:02;96328.89;;;16.54;99.94
72118;BME280;59992;47.490;8.736;2023-09-12T00:40:53;96320.65;;;16.47;99.89
72118;BME280;59992;47.490;8.736;2023-09-12T00:43:43;96327.83;;;16.48;99.75
72118;BME280;59992;47.490;8.736;2023-09-12T00:46:33;96326.46;;;16.46;100.00
72118;BME280;59992;47.490;8.736;2023-09-12T00:49:25;96324.43;;;16.43;99.74
72118;BME280;59992;47.490;8.736;2023-09-12T00:52:16;96326.98;;;16.41;99.92
72118;BME280;59992;47.490;8.736;2023-09-12T00:55:08;96322.67;;;16.38;99.96
72118;BME280;59992;47.490;8.736;2023-09-12T00:57:58;96319.72;;;16.36;100.00
72118;BME280;59992;47.490;8.736;2023-09-12T01:00:49;96316.00;;;16.33;100.00
72118;BME280;59992;47.490;8.736;2023-09-12T01:03:40;96316.65;;;16.32;99.36
72118;BME280;59992;47.490;8.736;2023-09-12T01:06:30;96317.20;;;16.30;99.17
72118;BME280;59992;47.490;8.736;2023-09-12T01:09:21;96320.80;;;16.29;99.82
72118;BME280;59992;47.490;8.736;2023-09-12T01:12:12;96318.23;;;16.27;98.57
72118;BME280;59992;47.490;8.736;2023-09-12T01:15:03;96312.83;;;16.25;97.26
72118;BME280;59992;47.490;8.736;2023-09-12T01:17:57;96316.89;;;16.24;96.64
72118;BME280;59992;47.490;8.736;2023-09-12T01:21:04;96321.73;;;16.23;98.53
72118;BME280;59992;47.490;8.736;2023-09-12T01:24:11;96329.02;;;16.20;98.59
72118;BME280;59992;47.490;8.736;2023-09-12T01:27:15;96330.88;;;16.17;97.56
72118;BME280;59992;47.490;8.736;2023-09-12T01:30:09;96329.63;;;16.13;99.65
72118;BME280;59992;47.490;8.736;2023-09-12T01:33:00;96331.70;;;16.13;98.19
72118;BME280;59992;47.490;8.736;2023-09-12T01:35:51;96335.00;;;16.12;97.12
72118;BME280;59992;47.490;8.736;2023-09-12T01:38:41;96342.05;;;16.10;97.11
72118;BME280;59992;47.490;8.736;2023-09-12T01:41:34;96340.71;;;16.08;96.37
72118;BME280;59992;47.490;8.736;2023-09-12T01:44:25;96345.31;;;16.06;96.09
72118;BME280;59992;47.490;8.736;2023-09-12T01:47:18;96342.42;;;16.05;97.45
72118;BME280;59992;47.490;8.736;2023-09-12T01:50:10;96338.23;;;16.03;98.36
72118;BME280;59992;47.490;8.736;2023-09-12T01:53:02;96341.92;;;16.02;99.15
72118;BME280;59992;47.490;8.736;2023-09-12T01:55:53;96342.90;;;16.03;98.55
72118;BME280;59992;47.490;8.736;2023-09-12T01:58:44;96343.05;;;16.04;99.32
72118;BME280;59992;47.490;8.736;2023-09-12T02:01:34;96347.55;;;16.04;100.00
72118;BME280;59992;47.490;8.736;2023-09-12T02:04:25;96348.33;;;16.03;100.00
72118;BME280;59992;47.490;8.736;2023-09-12T02:07:15;96349.57;;;16.01;100.00
72118;BME280;59992;47.490;8.736;2023-09-12T02:10:06;96351.50;;;16.00;99.57
72118;BME280;59992;47.490;8.736;2023-09-12T02:12:57;96352.13;;;15.98;98.46
72118;BME280;59992;47.490;8.736;2023-09-12T02:15:47;96353.69;;;15.96;98.25
72118;BME280;59992;47.490;8.736;2023-09-12T02:18:38;96354.08;;;15.94;99.61
72118;BME280;59992;47.490;8.736;2023-09-12T02:21:28;96356.41;;;15.91;100.00
72118;BME280;59992;47.490;8.736;2023-09-12T02:24:23;96355.04;;;15.91;100.00
72118;BME280;59992;47.490;8.736;2023-09-12T02:27:13;96353.93;;;15.89;100.00
72118;BME280;59992;47.490;8.736;2023-09-12T02:30:07;96351.58;;;15.87;100.00
72118;BME280;59992;47.490;8.736;2023-09-12T02:32:58;96352.25;;;15.87;100.00
72118;BME280;59992;47.490;8.736;2023-09-12T02:35:48;96338.26;;;15.82;99.97
72118;BME280;59992;47.490;8.736;2023-09-12T02:38:38;96348.42;;;15.88;100.00
72118;BME280;59992;47.490;8.736;2023-09-12T02:41:28;96347.11;;;15.90;100.00
72118;BME280;59992;47.490;8.736;2023-09-12T02:44:19;96342.31;;;15.88;100.00
72118;BME280;59992;47.490;8.736;2023-09-12T02:47:09;96338.05;;;15.87;100.00
72118;BME280;59992;47.490;8.736;2023-09-12T02:49:59;96336.61;;;15.85;100.00
72118;BME280;59992;47.490;8.736;2023-09-12T02:52:50;96340.38;;;15.83;100.00
72118;BME280;59992;47.490;8.736;2023-09-12T02:55:43;96342.95;;;15.79;100.00
72118;BME280;59992;47.490;8.736;2023-09-12T02:58:33;96341.39;;;15.76;100.00
72118;BME280;59992;47.490;8.736;2023-09-12T03:01:23;96346.21;;;15.74;100.00
72118;BME280;59992;47.490;8.736;2023-09-12T03:04:16;96342.42;;;15.71;99.97
72118;BME280;59992;47.490;8.736;2023-09-12T03:07:06;96343.05;;;15.70;98.98
72118;BME280;59992;47.490;8.736;2023-09-12T03:09:57;96343.97;;;15.69;99.05
72118;BME280;59992;47.490;8.736;2023-09-12T03:12:47;96344.14;;;15.69;98.98
72118;BME280;59992;47.490;8.736;2023-09-12T03:15:40;96346.67;;;15.67;98.94
72118;BME280;59992;47.490;8.736;2023-09-12T03:18:30;96345.09;;;15.65;99.43
72118;BME280;59992;47.490;8.736;2023-09-12T03:21:21;96342.90;;;15.62;100.00
72118;BME280;59992;47.490;8.736;2023-09-12T03:24:11;96340.93;;;15.61;100.00
72118;BME280;59992;47.490;8.736;2023-09-12T03:27:01;96341.18;;;15.60;100.00
72118;BME280;59992;47.490;8.736;2023-09-12T03:29:51;96342.08;;;15.60;100.00
72118;BME280;59992;47.490;8.736;2023-09-12T03:32:42;96340.42;;;15.59;100.00
72118;BME280;59992;47.490;8.736;2023-09-12T03:35:33;96340.65;;;15.59;100.00
72118;BME280;59992;47.490;8.736;2023-09-12T03:38:23;96340.13;;;15.58;100.00
72118;BME280;59992;47.490;8.736;2023-09-12T03:41:14;96338.61;;;15.56;100.00
72118;BME280;59992;47.490;8.736;2023-09-12T03:44:04;96335.06;;;15.53;100.00
72118;BME280;59992;47.490;8.736;2023-09-12T03:46:57;96329.89;;;15.51;100.00
72118;BME280;59992;47.490;8.736;2023-09-12T03:49:47;96328.08;;;15.49;100.00
72118;BME280;59992;47.490;8.736;2023-09-12T03:52:38;96331.59;;;15.49;100.00
72118;BME280;59992;47.490;8.736;2023-09-12T03:55:28;96330.77;;;15.47;100.00
72118;BME280;59992;47.490;8.736;2023-09-12T03:58:18;96330.77;;;15.47;100.00
72118;BME280;59992;47.490;8.736;2023-09-12T04:01:09;96332.15;;;15.45;100.00
72118;BME280;59992;47.490;8.736;2023-09-12T04:03:58;96329.25;;;15.46;100.00
72118;BME280;59992;47.490;8.736;2023-09-12T04:06:48;96329.31;;;15.47;100.00
72118;BME280;59992;47.490;8.736;2023-09-12T04:09:39;96329.53;;;15.47;100.00
72118;BME280;59992;47.490;8.736;2023-09-12T04:12:29;96334.42;;;15.48;100.00
72118;BME280;59992;47.490;8.736;2023-09-12T04:15:19;96330.15;;;15.47;100.00
72118;BME280;59992;47.490;8.736;2023-09-12T04:18:10;96328.86;;;15.46;100.00
72118;BME280;59992;47.490;8.736;2023-09-12T04:21:00;96329.25;;;15.46;100.00
72118;BME280;59992;47.490;8.736;2023-09-12T04:23:50;96328.88;;;15.45;100.00
72118;BME280;59992;47.490;8.736;2023-09-12T04:26:41;96331.34;;;15.44;100.00
72118;BME280;59992;47.490;8.736;2023-09-12T04:29:33;96331.88;;;15.43;100.00
72118;BME280;59992;47.490;8.736;2023-09-12T04:32:23;96330.04;;;15.41;100.00
72118;BME280;59992;47.490;8.736;2023-09-12T04:35:14;96330.13;;;15.40;100.00
72118;BME280;59992;47.490;8.736;2023-09-12T04:38:04;96331.88;;;15.39;100.00
72118;BME280;59992;47.490;8.736;2023-09-12T04:40:56;96336.17;;;15.38;100.00
72118;BME280;59992;47.490;8.736;2023-09-12T04:43:46;96333.74;;;15.36;100.00
72118;BME280;59992;47.490;8.736;2023-09-12T04:46:36;96338.19;;;15.33;100.00
72118;BME280;59992;47.490;8.736;2023-09-12T04:49:26;96333.63;;;15.32;100.00
72118;BME280;59992;47.490;8.736;2023-09-12T04:52:17;96331.02;;;15.34;100.00
72118;BME280;59992;47.490;8.736;2023-09-12T04:55:08;96337.41;;;15.35;100.00
72118;BME280;59992;47.490;8.736;2023-09-12T04:57:59;96338.61;;;15.37;100.00
72118;BME280;59992;47.490;8.736;2023-09-12T05:00:49;96344.23;;;15.39;100.00
72118;BME280;59992;47.490;8.736;2023-09-12T05:03:39;96346.38;;;15.43;100.00
72118;BME280;59992;47.490;8.736;2023-09-12T05:06:29;96347.04;;;15.46;100.00
72118;BME280;59992;47.490;8.736;2023-09-12T05:09:19;96350.98;;;15.48;100.00
72118;BME280;59992;47.490;8.736;2023-09-12T05:12:10;96355.67;;;15.53;100.00
72118;BME280;59992;47.490;8.736;2023-09-12T05:15:00;96353.57;;;15.57;100.00
72118;BME280;59992;47.490;8.736;2023-09-12T05:17:51;96353.73;;;15.64;100.00
72118;BME280;59992;47.490;8.736;2023-09-12T05:20:41;96352.51;;;15.70;100.00
72118;BME280;59992;47.490;8.736;2023-09-12T05:23:32;96356.63;;;15.78;100.00
72118;BME280;59992;47.490;8.736;2023-09-12T05:26:22;96358.83;;;15.87;100.00
72118;BME280;59992;47.490;8.736;2023-09-12T05:29:13;96357.79;;;15.97;100.00
72118;BME280;59992;47.490;8.736;2023-09-12T05:32:03;96360.27;;;16.08;100.00
72118;BME280;59992;47.490;8.736;2023-09-12T05:34:54;96363.42;;;16.18;100.00
72118;BME280;59992;47.490;8.736;2023-09-12T05:37:44;96362.63;;;16.28;100.00
72118;BME280;59992;47.490;8.736;2023-09-12T05:40:34;96365.10;;;16.38;100.00
72118;BME280;59992;47.490;8.736;2023-09-12T05:43:24;96368.48;;;16.50;100.00
72118;BME280;59992;47.490;8.736;2023-09-12T05:46:14;96368.17;;;16.61;100.00
72118;BME280;59992;47.490;8.736;2023-09-12T05:49:05;96367.59;;;16.70;100.00
72118;BME280;59992;47.490;8.736;2023-09-12T05:51:55;96364.44;;;16.87;99.93
72118;BME280;59992;47.490;8.736;2023-09-12T05:54:48;96364.09;;;16.99;99.31
72118;BME280;59992;47.490;8.736;2023-09-12T05:57:39;96364.08;;;17.10;99.13
72118;BME280;59992;47.490;8.736;2023-09-12T06:00:29;96365.98;;;17.21;99.73
72118;BME280;59992;47.490;8.736;2023-09-12T06:03:19;96366.35;;;17.40;98.72
72118;BME280;59992;47.490;8.736;2023-09-12T06:06:09;96365.88;;;17.51;97.69
72118;BME280;59992;47.490;8.736;2023-09-12T06:08:59;96367.75;;;17.58;97.26
72118;BME280;59992;47.490;8.736;2023-09-12T06:11:50;96371.15;;;17.65;96.80
72118;BME280;59992;47.490;8.736;2023-09-12T06:14:40;96366.27;;;17.72;96.48
72118;BME280;59992;47.490;8.736;2023-09-12T06:17:30;96372.25;;;17.84;96.49
72118;BME280;59992;47.490;8.736;2023-09-12T06:20:20;96376.11;;;17.95;95.60
72118;BME280;59992;47.490;8.736;2023-09-12T06:23:10;96374.94;;;18.20;95.58
72118;BME280;59992;47.490;8.736;2023-09-12T06:26:00;96380.04;;;18.57;94.33
72118;BME280;59992;47.490;8.736;2023-09-12T06:28:51;96381.68;;;18.89;92.30
72118;BME280;59992;47.490;8.736;2023-09-12T06:31:41;96381.27;;;19.37;90.18
72118;BME280;59992;47.490;8.736;2023-09-12T06:34:31;96381.67;;;19.80;90.37
72118;BME280;59992;47.490;8.736;2023-09-12T06:37:22;96382.29;;;20.06;86.77
72118;BME280;59992;47.490;8.736;2023-09-12T06:40:12;96380.02;;;20.10;84.67
72118;BME280;59992;47.490;8.736;2023-09-12T06:43:02;96381.05;;;20.11;84.35
72118;BME280;59992;47.490;8.736;2023-09-12T06:45:53;96382.07;;;20.13;85.46
72118;BME280;59992;47.490;8.736;2023-09-12T06:48:43;96386.90;;;20.17;84.47
72118;BME280;59992;47.490;8.736;2023-09-12T06:51:35;96387.73;;;20.29;84.10
72118;BME280;59992;47.490;8.736;2023-09-12T06:54:25;96386.61;;;20.50;83.23
72118;BME280;59992;47.490;8.736;2023-09-12T06:57:15;96389.04;;;20.64;81.61
72118;BME280;59992;47.490;8.736;2023-09-12T07:00:08;96384.63;;;20.70;81.00
72118;BME280;59992;47.490;8.736;2023-09-12T07:03:03;96383.91;;;20.81;81.14
72118;BME280;59992;47.490;8.736;2023-09-12T07:05:53;96386.31;;;21.16;79.38
72118;BME280;59992;47.490;8.736;2023-09-12T07:08:43;96379.95;;;21.70;79.40
72118;BME280;59992;47.490;8.736;2023-09-12T07:11:33;96382.59;;;22.31;75.14
72118;BME280;59992;47.490;8.736;2023-09-12T07:14:23;96386.14;;;22.92;73.53
72118;BME280;59992;47.490;8.736;2023-09-12T07:17:16;96380.64;;;23.55;70.43
72118;BME280;59992;47.490;8.736;2023-09-12T07:20:08;96381.52;;;24.15;69.40
72118;BME280;59992;47.490;8.736;2023-09-12T07:23:01;96385.49;;;24.66;65.69
72118;BME280;59992;47.490;8.736;2023-09-12T07:25:51;96387.44;;;25.04;64.02
72118;BME280;59992;47.490;8.736;2023-09-12T07:28:41;96391.36;;;25.49;62.83
72118;BME280;59992;47.490;8.736;2023-09-12T07:31:31;96397.89;;;25.80;60.78
72118;BME280;59992;47.490;8.736;2023-09-12T07:34:23;96400.47;;;26.04;58.91
72118;BME280;59992;47.490;8.736;2023-09-12T07:37:13;96393.02;;;26.27;57.55
72118;BME280;59992;47.490;8.736;2023-09-12T07:40:05;96391.94;;;26.49;56.92
72118;BME280;59992;47.490;8.736;2023-09-12T07:42:58;96391.03;;;26.79;57.33
72118;BME280;59992;47.490;8.736;2023-09-12T07:45:48;96387.75;;;27.11;58.16
72118;BME280;59992;47.490;8.736;2023-09-12T07:48:39;96390.19;;;27.55;56.38
72118;BME280;59992;47.490;8.736;2023-09-12T07:51:29;96392.40;;;27.83;51.42
72118;BME280;59992;47.490;8.736;2023-09-12T07:54:19;96397.63;;;27.92;52.36
72118;BME280;59992;47.490;8.736;2023-09-12T07:57:09;96407.52;;;27.88;52.37
72118;BME280;59992;47.490;8.736;2023-09-12T07:59:59;96411.23;;;27.98;50.54
72118;BME280;59992;47.490;8.736;2023-09-12T08:02:50;96406.03;;;28.02;49.90
72118;BME280;59992;47.490;8.736;2023-09-12T08:05:40;96410.06;;;28.07;52.54
72118;BME280;59992;47.490;8.736;2023-09-12T08:08:31;96405.02;;;28.23;53.13
72118;BME280;59992;47.490;8.736;2023-09-12T08:11:21;96398.61;;;28.50;52.98
72118;BME280;59992;47.490;8.736;2023-09-12T08:14:11;96397.38;;;28.66;50.58
72118;BME280;59992;47.490;8.736;2023-09-12T08:17:02;96400.31;;;28.77;51.90
72118;BME280;59992;47.490;8.736;2023-09-12T08:19:52;96399.35;;;28.81;51.05
72118;BME280;59992;47.490;8.736;2023-09-12T08:22:42;96399.06;;;29.14;50.34
72118;BME280;59992;47.490;8.736;2023-09-12T08:25:33;96391.23;;;29.23;48.92
72118;BME280;59992;47.490;8.736;2023-09-12T08:28:23;96401.02;;;29.17;50.11
72118;BME280;59992;47.490;8.736;2023-09-12T08:31:13;96400.52;;;29.10;50.24
72118;BME280;59992;47.490;8.736;2023-09-12T08:34:03;96399.97;;;29.15;50.97
72118;BME280;59992;47.490;8.736;2023-09-12T08:36:53;96401.20;;;29.04;51.71
72118;BME280;59992;47.490;8.736;2023-09-12T08:39:44;96399.64;;;28.92;50.74
72118;BME280;59992;47.490;8.736;2023-09-12T08:42:39;96392.85;;;28.94;52.30
72118;BME280;59992;47.490;8.736;2023-09-12T08:45:30;96385.03;;;28.98;51.28
72118;BME280;59992;47.490;8.736;2023-09-12T08:48:21;96386.60;;;29.13;51.42
72118;BME280;59992;47.490;8.736;2023-09-12T08:51:12;96380.66;;;29.28;52.33
72118;BME280;59992;47.490;8.736;2023-09-12T08:54:03;96380.55;;;29.45;50.20
72118;BME280;59992;47.490;8.736;2023-09-12T08:56:54;96380.47;;;29.50;48.75
72118;BME280;59992;47.490;8.736;2023-09-12T08:59:46;96378.85;;;29.54;49.88
72118;BME280;59992;47.490;8.736;2023-09-12T09:02:37;96374.69;;;29.73;49.83
72118;BME280;59992;47.490;8.736;2023-09-12T09:05:28;96377.33;;;29.84;50.29
72118;BME280;59992;47.490;8.736;2023-09-12T09:08:19;96373.76;;;29.77;50.45
72118;BME280;59992;47.490;8.736;2023-09-12T09:11:10;96370.37;;;29.85;48.77
72118;BME280;59992;47.490;8.736;2023-09-12T09:14:01;96370.02;;;29.73;49.02
72118;BME280;59992;47.490;8.736;2023-09-12T09:16:52;96368.17;;;29.72;50.45
72118;BME280;59992;47.490;8.736;2023-09-12T09:19:44;96364.63;;;29.63;50.44
72118;BME280;59992;47.490;8.736;2023-09-12T09:22:34;96366.76;;;29.49;50.74
72118;BME280;59992;47.490;8.736;2023-09-12T09:25:25;96356.48;;;29.39;50.83
72118;BME280;59992;47.490;8.736;2023-09-12T09:28:19;96353.19;;;29.28;50.08
72118;BME280;59992;47.490;8.736;2023-09-12T09:31:13;96354.57;;;29.25;48.98
72118;BME280;59992;47.490;8.736;2023-09-12T09:34:04;96355.01;;;29.24;49.08
72118;BME280;59992;47.490;8.736;2023-09-12T09:37:04;96356.42;;;29.21;51.41
72118;BME280;59992;47.490;8.736;2023-09-12T09:39:54;96352.88;;;29.11;51.68
72118;BME280;59992;47.490;8.736;2023-09-12T09:42:44;96356.91;;;29.07;50.23
72118;BME280;59992;47.490;8.736;2023-09-12T09:45:44;96355.36;;;29.06;49.99
72118;BME280;59992;47.490;8.736;2023-09-12T09:48:35;96353.20;;;29.08;50.85
72118;BME280;59992;47.490;8.736;2023-09-12T09:51:25;96345.52;;;29.14;49.99
72118;BME280;59992;47.490;8.736;2023-09-12T09:54:16;96341.20;;;29.15;48.77
72118;BME280;59992;47.490;8.736;2023-09-12T09:57:06;96340.04;;;29.08;49.51
72118;BME280;59992;47.490;8.736;2023-09-12T09:59:56;96339.23;;;29.03;47.97
72118;BME280;59992;47.490;8.736;2023-09-12T10:02:46;96343.87;;;28.94;47.65
72118;BME280;59992;47.490;8.736;2023-09-12T10:05:39;96346.45;;;28.94;47.76
72118;BME280;59992;47.490;8.736;2023-09-12T10:08:30;96343.63;;;28.94;47.50
72118;BME280;59992;47.490;8.736;2023-09-12T10:11:24;96342.98;;;28.94;47.51
72118;BME280;59992;47.490;8.736;2023-09-12T10:14:20;96344.57;;;28.94;46.77
72118;BME280;59992;47.490;8.736;2023-09-12T10:17:12;96342.45;;;28.88;47.20
72118;BME280;59992;47.490;8.736;2023-09-12T10:20:07;96339.23;;;28.69;46.66
72118;BME280;59992;47.490;8.736;2023-09-12T10:23:05;96334.29;;;28.55;49.60
72118;BME280;59992;47.490;8.736;2023-09-12T10:26:00;96331.14;;;28.49;52.61
72118;BME280;59992;47.490;8.736;2023-09-12T10:28:52;96325.54;;;28.48;48.80
72118;BME280;59992;47.490;8.736;2023-09-12T10:31:43;96323.14;;;28.46;49.06
72118;BME280;59992;47.490;8.736;2023-09-12T10:34:35;96320.17;;;28.48;48.30
72118;BME280;59992;47.490;8.736;2023-09-12T10:37:27;96322.95;;;28.48;49.72
72118;BME280;59992;47.490;8.736;2023-09-12T10:40:20;96322.77;;;28.50;50.45
72118;BME280;59992;47.490;8.736;2023-09-12T10:43:14;96321.35;;;28.45;50.54
72118;BME280;59992;47.490;8.736;2023-09-12T10:46:05;96317.38;;;28.39;49.53
72118;BME280;59992;47.490;8.736;2023-09-12T10:48:55;96314.67;;;28.41;51.21
72118;BME280;59992;47.490;8.736;2023-09-12T10:51:46;96309.55;;;28.45;49.16
72118;BME280;59992;47.490;8.736;2023-09-12T10:54:41;96304.96;;;28.49;49.00
72118;BME280;59992;47.490;8.736;2023-09-12T10:57:32;96299.61;;;28.49;49.12
72118;BME280;59992;47.490;8.736;2023-09-12T11:00:22;96299.86;;;28.54;48.64
72118;BME280;59992;47.490;8.736;2023-09-12T11:03:39;96298.58;;;28.54;48.43
72118;BME280;59992;47.490;8.736;2023-09-12T11:06:31;96291.38;;;28.59;47.65
72118;BME280;59992;47.490;8.736;2023-09-12T11:09:24;96289.71;;;28.63;47.62
72118;BME280;59992;47.490;8.736;2023-09-12T11:12:35;96283.70;;;28.67;47.36
72118;BME280;59992;47.490;8.736;2023-09-12T11:15:26;96281.31;;;28.73;47.92
72118;BME280;59992;47.490;8.736;2023-09-12T11:18:17;96280.21;;;28.80;48.75
72118;BME280;59992;47.490;8.736;2023-09-12T11:21:06;96274.59;;;28.86;48.11
72118;BME280;59992;47.490;8.736;2023-09-12T11:23:57;96270.93;;;28.89;47.31
72118;BME280;59992;47.490;8.736;2023-09-12T11:27:04;96271.09;;;28.90;47.91
72118;BME280;59992;47.490;8.736;2023-09-12T11:30:07;96273.25;;;28.94;48.62
72118;BME280;59992;47.490;8.736;2023-09-12T11:32:58;96272.05;;;29.01;48.96
72118;BME280;59992;47.490;8.736;2023-09-12T11:35:53;96271.05;;;29.10;48.81
72118;BME280;59992;47.490;8.736;2023-09-12T11:38:44;96266.94;;;29.18;49.28
72118;BME280;59992;47.490;8.736;2023-09-12T11:41:42;96262.29;;;29.20;46.43
72118;BME280;59992;47.490;8.736;2023-09-12T11:44:33;96265.15;;;29.18;46.53
72118;BME280;59992;47.490;8.736;2023-09-12T11:47:25;96261.02;;;29.26;48.43
72118;BME280;59992;47.490;8.736;2023-09-12T11:50:30;96255.23;;;29.31;46.22
72118;BME280;59992;47.490;8.736;2023-09-12T11:53:27;96254.75;;;29.35;48.29
72118;BME280;59992;47.490;8.736;2023-09-12T11:56:22;96254.27;;;29.35;48.58
72118;BME280;59992;47.490;8.736;2023-09-12T11:59:13;96251.80;;;29.29;47.57
72118;BME280;59992;47.490;8.736;2023-09-12T12:02:08;96253.80;;;29.32;48.00
72118;BME280;59992;47.490;8.736;2023-09-12T12:04:59;96250.67;;;29.34;48.76
72118;BME280;59992;47.490;8.736;2023-09-12T12:07:50;96245.27;;;29.35;46.75
72118;BME280;59992;47.490;8.736;2023-09-12T12:10:40;96247.02;;;29.36;45.63
72118;BME280;59992;47.490;8.736;2023-09-12T12:13:32;96250.09;;;29.36;45.90
72118;BME280;59992;47.490;8.736;2023-09-12T12:16:24;96251.33;;;29.36;46.51
72118;BME280;59992;47.490;8.736;2023-09-12T12:19:15;96251.13;;;29.38;45.60
72118;BME280;59992;47.490;8.736;2023-09-12T12:22:05;96244.38;;;29.33;43.82
72118;BME280;59992;47.490;8.736;2023-09-12T12:25:07;96237.87;;;29.34;45.14
72118;BME280;59992;47.490;8.736;2023-09-12T12:27:57;96233.94;;;29.32;43.53
72118;BME280;59992;47.490;8.736;2023-09-12T12:30:49;96233.41;;;29.37;44.74
72118;BME280;59992;47.490;8.736;2023-09-12T12:33:41;96229.40;;;29.43;43.04
72118;BME280;59992;47.490;8.736;2023-09-12T12:36:43;96222.16;;;29.48;43.86
72118;BME280;59992;47.490;8.736;2023-09-12T12:39:34;96218.48;;;29.48;42.72
72118;BME280;59992;47.490;8.736;2023-09-12T12:42:24;96211.64;;;29.51;44.77
72118;BME280;59992;47.490;8.736;2023-09-12T12:45:16;96213.14;;;29.57;44.16
72118;BME280;59992;47.490;8.736;2023-09-12T12:48:08;96215.68;;;29.62;43.15
72118;BME280;59992;47.490;8.736;2023-09-12T12:51:13;96217.43;;;29.64;41.97
72118;BME280;59992;47.490;8.736;2023-09-12T12:54:06;96213.85;;;29.75;43.21
72118;BME280;59992;47.490;8.736;2023-09-12T12:56:56;96211.82;;;29.83;42.48
72118;BME280;59992;47.490;8.736;2023-09-12T12:59:48;96213.11;;;29.82;41.83
72118;BME280;59992;47.490;8.736;2023-09-12T13:02:40;96206.80;;;29.88;44.59
72118;BME280;59992;47.490;8.736;2023-09-12T13:05:31;96205.11;;;29.87;41.95
72118;BME280;59992;47.490;8.736;2023-09-12T13:08:22;96209.48;;;29.87;42.33
72118;BME280;59992;47.490;8.736;2023-09-12T13:11:13;96206.45;;;29.93;43.53
72118;BME280;59992;47.490;8.736;2023-09-12T13:14:04;96209.40;;;29.95;45.87
72118;BME280;59992;47.490;8.736;2023-09-12T13:16:58;96216.16;;;29.95;45.19
72118;BME280;59992;47.490;8.736;2023-09-12T13:19:48;96215.46;;;29.98;50.01
72118;BME280;59992;47.490;8.736;2023-09-12T13:22:39;96216.11;;;29.92;51.59
72118;BME280;59992;47.490;8.736;2023-09-12T13:25:32;96218.92;;;29.81;51.20
72118;BME280;59992;47.490;8.736;2023-09-12T13:28:23;96222.94;;;29.59;51.24
72118;BME280;59992;47.490;8.736;2023-09-12T13:31:14;96228.11;;;29.41;51.74
72118;BME280;59992;47.490;8.736;2023-09-12T13:34:04;96235.48;;;29.20;53.14
72118;BME280;59992;47.490;8.736;2023-09-12T13:36:54;96239.92;;;28.89;53.34
72118;BME280;59992;47.490;8.736;2023-09-12T13:39:45;96240.92;;;28.59;53.87
72118;BME280;59992;47.490;8.736;2023-09-12T13:42:37;96241.67;;;28.28;54.26
72118;BME280;59992;47.490;8.736;2023-09-12T13:45:27;96239.96;;;28.01;55.57
72118;BME280;59992;47.490;8.736;2023-09-12T13:48:18;96248.74;;;27.79;56.96
72118;BME280;59992;47.490;8.736;2023-09-12T13:51:09;96256.71;;;27.54;58.01
72118;BME280;59992;47.490;8.736;2023-09-12T13:54:00;96262.77;;;27.27;58.32
72118;BME280;59992;47.490;8.736;2023-09-12T13:56:51;96267.79;;;27.01;58.52
72118;BME280;59992;47.490;8.736;2023-09-12T13:59:41;96267.25;;;26.80;59.10
72118;BME280;59992;47.490;8.736;2023-09-12T14:02:32;96265.04;;;26.62;60.03
72118;BME280;59992;47.490;8.736;2023-09-12T14:05:22;96269.92;;;26.41;60.57
72118;BME280;59992;47.490;8.736;2023-09-12T14:08:13;96272.20;;;26.27;60.84
72118;BME280;59992;47.490;8.736;2023-09-12T14:11:03;96280.77;;;26.16;59.39
72118;BME280;59992;47.490;8.736;2023-09-12T14:13:54;96274.37;;;26.09;56.39
72118;BME280;59992;47.490;8.736;2023-09-12T14:16:44;96275.45;;;26.23;54.56
72118;BME280;59992;47.490;8.736;2023-09-12T14:19:35;96276.70;;;26.32;54.91
72118;BME280;59992;47.490;8.736;2023-09-12T14:22:25;96282.90;;;26.44;54.66
72118;BME280;59992;47.490;8.736;2023-09-12T14:25:16;96286.66;;;26.50;53.55
72118;BME280;59992;47.490;8.736;2023-09-12T14:28:08;96283.61;;;26.55;52.34
72118;BME280;59992;47.490;8.736;2023-09-12T14:30:59;96286.94;;;26.65;52.00
72118;BME280;59992;47.490;8.736;2023-09-12T14:33:49;96289.61;;;26.73;51.09
72118;BME280;59992;47.490;8.736;2023-09-12T14:36:41;96295.43;;;26.87;49.58
72118;BME280;59992;47.490;8.736;2023-09-12T14:39:35;96291.24;;;26.92;48.20
72118;BME280;59992;47.490;8.736;2023-09-12T14:42:25;96290.77;;;26.99;47.07
72118;BME280;59992;47.490;8.736;2023-09-12T14:45:18;96292.05;;;27.06;46.11
72118;BME280;59992;47.490;8.736;2023-09-12T14:48:09;96293.27;;;27.05;44.10
72118;BME280;59992;47.490;8.736;2023-09-12T14:51:00;96285.43;;;27.03;43.57
72118;BME280;59992;47.490;8.736;2023-09-12T14:53:52;96283.30;;;27.07;44.56
72118;BME280;59992;47.490;8.736;2023-09-12T14:56:42;96289.61;;;27.06;43.61
72118;BME280;59992;47.490;8.736;2023-09-12T14:59:33;96295.21;;;27.00;42.25
72118;BME280;59992;47.490;8.736;2023-09-12T15:02:24;96288.83;;;26.92;42.22
72118;BME280;59992;47.490;8.736;2023-09-12T15:05:20;96279.70;;;26.86;43.05